createdAt,value
2019-01-21T00:00:33.002Z,26.40
2019-01-21T00:03:01.942Z,25.52
2019-01-21T00:05:30.788Z,26.93
2019-01-21T00:07:59.630Z,28.17
2019-01-21T00:10:28.496Z,25.72
2019-01-21T00:12:57.367Z,25.10
2019-01-21T00:15:26.261Z,26.02
2019-01-21T00:17:55.039Z,25.88
2019-01-21T00:20:23.835Z,27.02
2019-01-21T00:22:52.619Z,27.77
2019-01-21T00:25:21.410Z,26.90
2019-01-21T00:27:50.302Z,27.10
2019-01-21T00:30:19.138Z,26.57
2019-01-21T00:32:48.008Z,30.23
2019-01-21T00:35:16.824Z,27.73
2019-01-21T00:37:45.613Z,29.25
2019-01-21T00:40:16.781Z,26.80
2019-01-21T00:42:45.571Z,27.50
2019-01-21T00:45:14.371Z,27.13
2019-01-21T00:47:43.180Z,28.90
2019-01-21T00:50:13.290Z,28.55
2019-01-21T00:52:42.108Z,28.65
2019-01-21T00:55:12.815Z,28.40
2019-01-21T00:57:42.603Z,26.55
2019-01-21T01:00:14.645Z,26.82
2019-01-21T01:02:43.525Z,25.70
2019-01-21T01:05:12.393Z,27.70
2019-01-21T01:07:41.268Z,29.12
2019-01-21T01:10:12.034Z,27.73
2019-01-21T01:12:40.838Z,27.25
2019-01-21T01:15:11.924Z,26.12
2019-01-21T01:17:40.746Z,24.90
2019-01-21T01:20:12.635Z,28.00
2019-01-21T01:22:44.924Z,27.30
2019-01-21T01:25:13.773Z,27.27
2019-01-21T01:27:42.602Z,25.88
2019-01-21T01:30:14.253Z,26.48
2019-01-21T01:32:43.138Z,26.85
2019-01-21T01:35:13.395Z,24.90
2019-01-21T01:37:42.698Z,29.67
2019-01-21T01:40:16.220Z,29.10
2019-01-21T01:42:46.693Z,25.88
2019-01-21T01:45:18.851Z,26.52
2019-01-21T01:47:47.728Z,26.35
2019-01-21T01:50:16.636Z,26.12
2019-01-21T01:52:45.513Z,25.50
2019-01-21T01:55:14.389Z,27.55
2019-01-21T01:57:43.293Z,27.67
2019-01-21T02:00:14.399Z,26.97
2019-01-21T02:02:43.323Z,26.42
2019-01-21T02:05:12.158Z,29.32
2019-01-21T02:07:40.939Z,28.45
2019-01-21T02:10:11.867Z,28.60
2019-01-21T02:12:40.930Z,30.17
2019-01-21T02:15:15.451Z,29.77
2019-01-21T02:17:44.295Z,28.02
2019-01-21T02:20:16.281Z,27.55
2019-01-21T02:22:47.670Z,28.38
2019-01-21T02:25:17.025Z,29.70
2019-01-21T02:28:05.422Z,28.80
2019-01-21T02:30:43.248Z,30.50
2019-01-21T02:33:21.491Z,26.93
2019-01-21T02:35:56.232Z,26.97
2019-01-21T02:38:40.120Z,28.50
2019-01-21T02:41:14.883Z,27.37
2019-01-21T02:43:55.696Z,26.73
2019-01-21T02:46:27.838Z,28.10
2019-01-21T02:49:02.668Z,27.80
2019-01-21T02:51:37.539Z,29.15
2019-01-21T02:54:18.191Z,29.75
2019-01-21T02:56:50.495Z,29.23
2019-01-21T02:59:31.093Z,28.80
2019-01-21T03:02:17.900Z,27.00
2019-01-21T03:05:04.835Z,29.00
2019-01-21T03:07:37.024Z,29.90
2019-01-21T03:10:35.805Z,30.10
2019-01-21T03:13:13.836Z,29.87
2019-01-21T03:15:45.955Z,28.52
2019-01-21T03:18:24.106Z,30.88
2019-01-21T03:21:08.142Z,28.47
2019-01-21T03:23:59.734Z,29.10
2019-01-21T03:26:31.851Z,28.02
2019-01-21T03:29:09.707Z,31.30
2019-01-21T03:32:10.699Z,29.10
2019-01-21T03:34:48.609Z,34.13
2019-01-21T03:37:49.171Z,31.70
2019-01-21T03:40:44.443Z,28.83
2019-01-21T03:43:19.756Z,28.98
2019-01-21T03:46:10.997Z,27.60
2019-01-21T03:48:41.228Z,29.85
2019-01-21T03:51:29.714Z,30.20
2019-01-21T03:54:01.859Z,30.40
2019-01-21T03:56:34.014Z,30.35
2019-01-21T03:59:11.922Z,30.55
2019-01-21T04:01:44.075Z,30.90
2019-01-21T04:04:49.163Z,29.92
2019-01-21T04:07:24.096Z,28.05
2019-01-21T04:10:05.267Z,32.03
2019-01-21T04:12:40.269Z,29.80
2019-01-21T04:15:30.165Z,33.02
2019-01-21T04:18:08.051Z,28.35
2019-01-21T04:20:56.713Z,28.70
2019-01-21T04:23:40.833Z,28.02
2019-01-21T04:26:32.269Z,29.75
2019-01-21T04:29:09.912Z,30.05
2019-01-21T04:31:47.759Z,29.15
2019-01-21T04:34:25.363Z,32.50
2019-01-21T04:36:57.505Z,31.75
2019-01-21T04:39:32.081Z,30.97
2019-01-21T04:42:37.063Z,28.45
2019-01-21T04:45:23.917Z,30.12
2019-01-21T04:48:07.339Z,28.40
2019-01-21T04:50:48.136Z,32.28
2019-01-21T04:53:40.970Z,30.62
2019-01-21T04:56:39.968Z,29.32
2019-01-21T04:59:33.793Z,29.80
2019-01-21T05:02:25.350Z,28.07
2019-01-21T05:05:13.841Z,30.10
2019-01-21T05:08:06.699Z,27.85
2019-01-21T05:10:38.745Z,30.90
2019-01-21T05:13:10.918Z,28.70
2019-01-21T05:15:57.763Z,26.27
2019-01-21T05:18:47.934Z,26.10
2019-01-21T05:21:31.639Z,28.50
2019-01-21T05:24:32.157Z,27.15
2019-01-21T05:27:13.072Z,27.00
2019-01-21T05:29:45.584Z,27.30
2019-01-21T05:32:44.259Z,28.55
2019-01-21T05:35:31.440Z,26.35
2019-01-21T05:38:12.878Z,27.48
2019-01-21T05:41:12.280Z,30.08
2019-01-21T05:43:53.039Z,29.90
2019-01-21T05:46:41.294Z,29.32
2019-01-21T05:49:28.519Z,28.77
2019-01-21T05:52:09.643Z,28.32
2019-01-21T05:54:44.167Z,28.50
2019-01-21T05:57:24.984Z,27.93
2019-01-21T06:00:05.814Z,25.88
2019-01-21T06:02:43.510Z,25.90
2019-01-21T06:05:15.622Z,28.12
2019-01-21T06:07:53.518Z,28.32
2019-01-21T06:10:34.489Z,27.20
2019-01-21T06:13:06.538Z,28.83
2019-01-21T06:15:38.590Z,25.82
2019-01-21T06:18:25.623Z,27.75
2019-01-21T06:21:23.057Z,27.65
2019-01-21T06:23:57.628Z,28.67
2019-01-21T06:26:32.394Z,30.25
2019-01-21T06:29:04.638Z,32.35
2019-01-21T06:31:45.517Z,30.37
2019-01-21T06:34:23.123Z,28.65
2019-01-21T06:37:13.273Z,32.50
2019-01-21T06:40:12.656Z,34.78
2019-01-21T06:42:59.346Z,28.52
2019-01-21T06:45:50.829Z,27.27
2019-01-21T06:48:28.769Z,32.63
2019-01-21T06:51:09.596Z,31.05
2019-01-21T06:53:52.973Z,30.00
2019-01-21T06:56:36.753Z,37.38
2019-01-21T06:59:08.810Z,48.45
2019-01-21T07:01:52.859Z,39.83
2019-01-21T07:04:34.414Z,51.10
2019-01-21T07:07:09.130Z,57.00
2019-01-21T07:09:46.907Z,51.13
2019-01-21T07:12:24.665Z,57.43
2019-01-21T07:15:08.776Z,50.83
2019-01-21T07:18:06.194Z,49.45
2019-01-21T07:20:40.768Z,53.75
2019-01-21T07:23:21.753Z,45.63
2019-01-21T07:25:56.563Z,50.12
2019-01-21T07:28:31.320Z,52.70
2019-01-21T07:31:24.510Z,51.68
2019-01-21T07:34:14.253Z,51.37
2019-01-21T07:36:49.187Z,48.17
2019-01-21T07:39:42.230Z,45.45
2019-01-21T07:42:30.915Z,44.75
2019-01-21T07:45:17.933Z,38.42
2019-01-21T07:47:55.702Z,46.58
2019-01-21T07:50:36.867Z,44.10
2019-01-21T07:53:17.762Z,40.20
2019-01-21T07:55:55.851Z,42.67
2019-01-21T07:58:36.414Z,40.20
2019-01-21T08:01:11.295Z,37.65
2019-01-21T08:03:58.226Z,40.95
2019-01-21T08:06:33.316Z,45.50
2019-01-21T08:09:10.789Z,37.13
2019-01-21T08:11:57.819Z,43.90
2019-01-21T08:14:35.374Z,40.33
2019-01-21T08:17:22.335Z,33.35
2019-01-21T08:20:00.018Z,35.30
2019-01-21T08:22:40.796Z,39.92
2019-01-21T08:25:27.619Z,39.25
2019-01-21T08:28:05.894Z,35.17
2019-01-21T08:30:52.894Z,35.08
2019-01-21T08:33:58.670Z,34.53
2019-01-21T08:36:42.625Z,38.17
2019-01-21T08:39:23.204Z,36.93
2019-01-21T08:42:09.620Z,35.40
2019-01-21T08:45:04.087Z,33.18
2019-01-21T08:47:45.054Z,35.55
2019-01-21T08:50:26.138Z,39.15
2019-01-21T08:53:03.997Z,32.20
2019-01-21T08:55:45.113Z,30.82
2019-01-21T08:58:37.953Z,32.67
2019-01-21T09:01:10.000Z,34.75
2019-01-21T09:03:57.144Z,32.45
2019-01-21T09:06:48.162Z,35.33
2019-01-21T09:09:43.973Z,31.48
2019-01-21T09:12:24.885Z,32.13
2019-01-21T09:15:02.712Z,31.97
2019-01-21T09:18:06.267Z,32.55
2019-01-21T09:20:56.396Z,31.95
2019-01-21T09:23:30.941Z,30.60
2019-01-21T09:26:27.103Z,37.58
2019-01-21T09:29:13.977Z,47.60
2019-01-21T09:32:10.154Z,56.28
2019-01-21T09:34:50.849Z,48.02
2019-01-21T09:37:37.851Z,50.60
2019-01-21T09:40:24.695Z,45.88
2019-01-21T09:43:08.557Z,42.35
2019-01-21T09:45:40.596Z,47.30
2019-01-21T09:48:08.507Z,44.13
2019-01-21T09:50:37.402Z,42.98
2019-01-21T09:53:06.677Z,49.15
2019-01-21T09:55:35.635Z,46.48
2019-01-21T09:58:07.001Z,45.03
2019-01-21T10:00:35.805Z,45.33
2019-01-21T10:03:05.377Z,45.65
2019-01-21T10:05:35.200Z,42.65
2019-01-21T10:08:19.179Z,47.45
2019-01-21T10:11:03.664Z,41.10
2019-01-21T10:13:55.084Z,42.80
2019-01-21T10:16:32.874Z,38.05
2019-01-21T10:19:28.859Z,37.23
2019-01-21T10:22:19.168Z,37.80
2019-01-21T10:25:08.825Z,39.42
2019-01-21T10:27:43.548Z,40.67
2019-01-21T10:30:33.746Z,39.83
2019-01-21T10:33:14.549Z,37.13
2019-01-21T10:36:13.921Z,44.53
2019-01-21T10:39:01.180Z,40.43
2019-01-21T10:41:49.737Z,40.03
2019-01-21T10:44:24.436Z,49.55
2019-01-21T10:47:02.140Z,54.88
2019-01-21T10:49:45.776Z,37.45
2019-01-21T10:52:20.493Z,44.05
2019-01-21T10:55:04.454Z,42.58
2019-01-21T10:57:54.277Z,42.95
2019-01-21T11:00:32.224Z,43.33
2019-01-21T11:03:10.059Z,47.45
2019-01-21T11:05:51.030Z,40.73
2019-01-21T11:08:46.961Z,42.58
2019-01-21T11:11:34.009Z,39.90
2019-01-21T11:14:17.593Z,37.10
2019-01-21T11:16:55.207Z,41.10
2019-01-21T11:19:55.893Z,37.58
2019-01-21T11:22:37.218Z,40.98
2019-01-21T11:25:18.051Z,41.90
2019-01-21T11:27:50.102Z,44.40
2019-01-21T11:30:31.096Z,44.03
2019-01-21T11:33:14.466Z,33.75
2019-01-21T11:35:49.289Z,43.33
2019-01-21T11:38:42.413Z,42.67
2019-01-21T11:41:20.165Z,39.83
2019-01-21T11:44:06.390Z,37.35
2019-01-21T11:46:41.530Z,35.58
2019-01-21T11:49:28.092Z,35.80
2019-01-21T11:52:12.218Z,35.13
2019-01-21T11:54:59.162Z,29.57
2019-01-21T11:57:49.038Z,35.40
2019-01-21T12:00:32.804Z,38.30
2019-01-21T12:03:32.024Z,40.83
2019-01-21T12:06:01.955Z,39.83
2019-01-21T12:08:54.835Z,40.35
2019-01-21T12:11:26.900Z,47.08
2019-01-21T12:14:16.668Z,44.53
2019-01-21T12:17:04.874Z,45.00
2019-01-21T12:19:45.900Z,44.67
2019-01-21T12:22:39.037Z,42.38
2019-01-21T12:25:13.946Z,45.90
2019-01-21T12:27:46.241Z,46.13
2019-01-21T12:30:42.389Z,47.75
2019-01-21T12:33:25.651Z,43.10
2019-01-21T12:36:03.317Z,42.55
2019-01-21T12:38:51.855Z,37.00
2019-01-21T12:41:38.787Z,38.28
2019-01-21T12:44:25.937Z,35.17
2019-01-21T12:47:14.319Z,37.23
2019-01-21T12:50:23.917Z,31.30
2019-01-21T12:53:02.273Z,31.20
2019-01-21T12:55:43.561Z,42.10
2019-01-21T12:58:27.429Z,30.27
2019-01-21T13:01:08.039Z,30.00
2019-01-21T13:03:54.673Z,31.77
2019-01-21T13:06:46.310Z,30.82
2019-01-21T13:09:36.221Z,28.50
2019-01-21T13:12:20.926Z,36.42
2019-01-21T13:14:58.729Z,29.27
2019-01-21T13:17:33.861Z,28.83
2019-01-21T13:20:11.458Z,28.02
2019-01-21T13:22:51.439Z,27.70
2019-01-21T13:25:37.463Z,29.77
2019-01-21T13:28:28.779Z,26.33
2019-01-21T13:31:26.472Z,24.63
2019-01-21T13:34:17.279Z,26.50
2019-01-21T13:37:07.521Z,28.27
2019-01-21T13:39:58.632Z,26.33
2019-01-21T13:42:33.798Z,27.35
2019-01-21T13:45:05.889Z,25.65
2019-01-21T13:47:49.462Z,23.42
2019-01-21T13:50:37.291Z,24.45
2019-01-21T13:53:25.701Z,27.55
2019-01-21T13:56:03.368Z,26.25
2019-01-21T13:58:57.611Z,23.90
2019-01-21T14:01:38.550Z,24.10
2019-01-21T14:04:27.275Z,28.87
2019-01-21T14:07:07.500Z,37.28
2019-01-21T14:09:48.088Z,37.13
2019-01-21T14:12:25.963Z,36.33
2019-01-21T14:15:12.905Z,36.95
2019-01-21T14:18:06.168Z,35.17
2019-01-21T14:20:44.008Z,42.05
2019-01-21T14:23:34.261Z,42.48
2019-01-21T14:26:30.163Z,37.25
2019-01-21T14:29:20.465Z,32.28
2019-01-21T14:31:57.991Z,39.53
2019-01-21T14:34:32.906Z,34.27
2019-01-21T14:37:19.537Z,35.13
2019-01-21T14:39:51.648Z,33.42
2019-01-21T14:42:29.366Z,36.95
2019-01-21T14:45:16.025Z,33.95
2019-01-21T14:48:07.695Z,36.17
2019-01-21T14:50:50.386Z,30.55
2019-01-21T14:53:22.273Z,35.65
2019-01-21T14:56:00.039Z,40.50
2019-01-21T14:58:37.850Z,41.68
2019-01-21T15:01:12.794Z,33.38
2019-01-21T15:04:02.922Z,43.33
2019-01-21T15:06:43.889Z,38.90
2019-01-21T15:09:21.740Z,39.70
2019-01-21T15:12:16.471Z,33.13
2019-01-21T15:14:51.135Z,39.15
2019-01-21T15:17:31.838Z,38.00
2019-01-21T15:20:00.712Z,39.00
2019-01-21T15:22:38.753Z,40.38
2019-01-21T15:25:30.614Z,36.15
2019-01-21T15:28:17.828Z,36.10
2019-01-21T15:31:10.963Z,31.80
2019-01-21T15:34:07.268Z,35.55
2019-01-21T15:36:45.284Z,36.10
2019-01-21T15:39:38.568Z,40.55
2019-01-21T15:42:27.676Z,36.83
2019-01-21T15:45:14.495Z,40.03
2019-01-21T15:47:46.612Z,38.33
2019-01-21T15:50:33.904Z,50.60
2019-01-21T15:53:11.483Z,36.45
2019-01-21T15:55:43.524Z,43.02
2019-01-21T15:58:19.090Z,48.73
2019-01-21T16:00:57.405Z,50.33
2019-01-21T16:03:41.483Z,48.98
2019-01-21T16:06:32.965Z,46.37
2019-01-21T16:09:30.568Z,46.53
2019-01-21T16:12:20.301Z,44.90
2019-01-21T16:14:52.388Z,50.52
2019-01-21T16:17:26.910Z,51.60
2019-01-21T16:19:55.778Z,40.03
2019-01-21T16:22:48.600Z,39.65
2019-01-21T16:25:35.839Z,38.85
2019-01-21T16:28:19.230Z,39.60
2019-01-21T16:30:51.359Z,32.50
2019-01-21T16:33:56.853Z,35.30
2019-01-21T16:36:31.460Z,34.88
2019-01-21T16:39:15.887Z,34.55
2019-01-21T16:41:50.862Z,36.63
2019-01-21T16:44:19.689Z,36.50
2019-01-21T16:46:48.563Z,40.10
2019-01-21T16:49:17.363Z,41.02
2019-01-21T16:51:46.179Z,38.05
2019-01-21T16:54:14.976Z,45.33
2019-01-21T16:56:43.777Z,44.95
2019-01-21T16:59:12.608Z,48.13
2019-01-21T17:01:41.439Z,45.23
2019-01-21T17:04:10.289Z,45.35
2019-01-21T17:06:39.595Z,38.48
2019-01-21T17:09:10.289Z,39.27
2019-01-21T17:11:39.152Z,39.25
2019-01-21T17:14:09.577Z,43.85
2019-01-21T17:16:38.476Z,39.92
2019-01-21T17:19:07.502Z,36.60
2019-01-21T17:21:36.797Z,38.20
2019-01-21T17:24:05.709Z,40.08
2019-01-21T17:26:34.500Z,39.70
2019-01-21T17:29:03.355Z,37.63
2019-01-21T17:31:32.214Z,37.90
2019-01-21T17:34:00.997Z,38.75
2019-01-21T17:36:29.823Z,32.90
2019-01-21T17:38:58.694Z,33.78
2019-01-21T17:41:27.485Z,36.05
2019-01-21T17:43:56.350Z,34.58
2019-01-21T17:46:25.258Z,38.42
2019-01-21T17:48:56.940Z,36.33
2019-01-21T17:51:33.497Z,37.13
2019-01-21T17:53:57.742Z,37.05
2019-01-21T17:56:26.541Z,31.37
2019-01-21T17:58:55.461Z,30.90
2019-01-21T18:01:24.498Z,29.23
2019-01-21T18:03:53.381Z,34.00
2019-01-21T18:06:22.281Z,38.53
2019-01-21T18:08:51.155Z,41.95
2019-01-21T18:11:19.958Z,33.73
2019-01-21T18:13:48.902Z,38.00
2019-01-21T18:16:17.708Z,37.67
2019-01-21T18:18:46.529Z,33.05
2019-01-21T18:21:15.327Z,31.25
2019-01-21T18:23:44.203Z,36.75
2019-01-21T18:26:13.000Z,36.95
2019-01-21T18:28:41.957Z,29.35
2019-01-21T18:31:10.783Z,32.73
2019-01-21T18:33:39.580Z,35.25
2019-01-21T18:36:08.358Z,33.15
2019-01-21T18:38:37.150Z,32.85
2019-01-21T18:41:05.953Z,32.98
2019-01-21T18:43:34.765Z,31.42
2019-01-21T18:46:03.618Z,34.23
2019-01-21T18:48:32.438Z,34.58
2019-01-21T18:51:01.304Z,34.92
2019-01-21T18:53:30.238Z,39.27
2019-01-21T18:55:59.205Z,33.92
2019-01-21T18:58:28.113Z,33.85
2019-01-21T19:00:56.986Z,32.67
2019-01-21T19:03:25.777Z,32.90
2019-01-21T19:05:54.559Z,29.20
2019-01-21T19:08:23.632Z,32.33
2019-01-21T19:10:52.478Z,27.02
2019-01-21T19:13:21.296Z,34.45
2019-01-21T19:15:50.315Z,26.93
2019-01-21T19:18:19.190Z,31.25
2019-01-21T19:20:47.987Z,29.55
2019-01-21T19:23:16.831Z,29.92
2019-01-21T19:25:45.672Z,33.48
2019-01-21T19:28:14.536Z,28.95
2019-01-21T19:30:43.343Z,31.05
2019-01-21T19:33:12.146Z,28.52
2019-01-21T19:35:40.942Z,27.37
2019-01-21T19:38:09.758Z,32.17
2019-01-21T19:40:38.558Z,32.90
2019-01-21T19:43:07.383Z,33.08
2019-01-21T19:45:36.172Z,31.90
2019-01-21T19:48:04.975Z,36.68
2019-01-21T19:50:33.829Z,31.60
2019-01-21T19:53:02.679Z,33.10
2019-01-21T19:55:37.237Z,30.60
2019-01-21T19:58:07.291Z,27.65
2019-01-21T20:00:36.138Z,33.60
2019-01-21T20:03:05.037Z,29.45
2019-01-21T20:05:33.953Z,26.85
2019-01-21T20:08:02.851Z,28.05
2019-01-21T20:10:31.648Z,28.27
2019-01-21T20:13:00.480Z,30.97
2019-01-21T20:15:29.368Z,32.90
2019-01-21T20:17:58.209Z,27.55
2019-01-21T20:20:30.997Z,28.00
2019-01-21T20:22:59.866Z,34.25
2019-01-21T20:25:28.730Z,30.40
2019-01-21T20:27:57.567Z,32.17
2019-01-21T20:30:26.450Z,29.40
2019-01-21T20:32:55.339Z,26.87
2019-01-21T20:35:24.218Z,28.77
2019-01-21T20:37:53.070Z,26.23
2019-01-21T20:40:25.125Z,32.28
2019-01-21T20:42:54.009Z,36.83
2019-01-21T20:45:22.864Z,37.10
2019-01-21T20:47:51.657Z,36.70
2019-01-21T20:50:26.220Z,41.92
2019-01-21T20:52:55.101Z,35.43
2019-01-21T20:55:24.159Z,33.63
2019-01-21T20:57:53.017Z,31.00
2019-01-21T21:00:23.924Z,29.32
2019-01-21T21:02:54.301Z,37.53
2019-01-21T21:05:23.248Z,31.37
2019-01-21T21:07:52.203Z,33.80
2019-01-21T21:10:21.126Z,28.12
2019-01-21T21:12:50.083Z,30.30
2019-01-21T21:15:22.514Z,27.67
2019-01-21T21:17:51.595Z,26.52
2019-01-21T21:20:20.399Z,26.50
2019-01-21T21:22:49.290Z,30.10
2019-01-21T21:25:19.728Z,28.90
2019-01-21T21:27:48.619Z,26.23
2019-01-21T21:30:26.037Z,27.85
2019-01-21T21:32:54.905Z,24.32
2019-01-21T21:35:24.713Z,30.48
2019-01-21T21:37:53.576Z,28.62
2019-01-21T21:40:23.195Z,27.37
2019-01-21T21:42:52.094Z,24.43
2019-01-21T21:45:22.095Z,23.57
2019-01-21T21:47:51.460Z,25.77
2019-01-21T21:50:23.497Z,27.95
2019-01-21T21:52:52.554Z,24.77
2019-01-21T21:55:21.428Z,23.65
2019-01-21T21:57:50.375Z,22.67
2019-01-21T22:00:22.306Z,23.15
2019-01-21T22:02:51.172Z,27.42
2019-01-21T22:05:20.258Z,22.98
2019-01-21T22:07:49.122Z,24.92
2019-01-21T22:10:20.501Z,22.75
2019-01-21T22:12:50.663Z,25.23
2019-01-21T22:15:21.176Z,21.93
2019-01-21T22:17:50.031Z,25.25
2019-01-21T22:20:23.206Z,24.67
2019-01-21T22:22:52.162Z,20.88
2019-01-21T22:25:21.486Z,21.93
2019-01-21T22:27:50.351Z,25.72
2019-01-21T22:30:21.873Z,23.05
2019-01-21T22:32:50.719Z,21.07
2019-01-21T22:35:19.925Z,22.07
2019-01-21T22:37:49.205Z,21.35
2019-01-21T22:40:20.002Z,20.37
2019-01-21T22:42:48.882Z,21.17
2019-01-21T22:45:19.186Z,19.55
2019-01-21T22:47:48.049Z,22.80
2019-01-21T22:50:18.079Z,20.15
2019-01-21T22:52:46.985Z,21.15
2019-01-21T22:55:16.409Z,22.70
2019-01-21T22:57:45.281Z,18.27
2019-01-21T23:00:20.342Z,21.15
2019-01-21T23:02:49.388Z,19.90
2019-01-21T23:05:18.271Z,20.05
2019-01-21T23:07:47.120Z,22.80
2019-01-21T23:10:15.996Z,22.22
2019-01-21T23:12:44.882Z,20.62
2019-01-21T23:15:13.747Z,20.75
2019-01-21T23:17:42.679Z,21.93
2019-01-21T23:20:11.595Z,19.85
2019-01-21T23:22:40.634Z,20.15
2019-01-21T23:25:09.494Z,20.48
2019-01-21T23:27:38.999Z,20.32
2019-01-21T23:30:11.148Z,22.00
2019-01-21T23:32:40.013Z,18.30
2019-01-21T23:35:08.891Z,23.35
2019-01-21T23:37:37.792Z,18.20
2019-01-21T23:40:10.026Z,18.35
2019-01-21T23:42:38.913Z,18.75
2019-01-21T23:45:11.334Z,19.92
2019-01-21T23:47:40.386Z,18.37
2019-01-21T23:50:17.048Z,19.07
2019-01-21T23:52:45.935Z,19.70
2019-01-21T23:55:14.790Z,19.42
2019-01-21T23:57:43.648Z,17.77
